SVDA weather

La Tortuga Punta Delgada Airport
Isla La Tortuga, Nueva Esparta, Venezuela

Public forecast

Using degrees Celsius for public forecast. Weather courtesy of forecast.io.

METAR (pilot weather report)

Report is more than 6 hours old.

Retrieved 2014/01/01 13:00 UTC (6 years ago):

SVDA 011300Z 6000 VCFG BKN017 24/22 Q1016

TAF (pilot weather forecast)

Forecast is more than 6 hours old.

Closest forecast is General José Antonio Anzoategui International Airport, 58.6 nm (108.6 km) SSE. Retrieved 2019/09/22 18:03 UTC (7 hours ago):

TAF TAF SVBC 222200Z 2218/2318 09012G35KT 4000 +TSSHRA SCT010BC(N) OVC013 TX26/18Z TN22/06Z PROB40 TEMPO 2218/2222 09015G40KT 4000 +TSSHRA SCT010CB(N) OCV013